Tropical Cyclones
[Index]
Main Index Home Page Stock Weather Photos Extreme Storms Discussion Storm News and Storm Chasing Reports Tropical Cyclones / Hurricanes / Typhoons Weather Data and Links Wild Fires / Bushfires Weather Observation Techniques Weather Picture Catalogue Tornado Pictures and Reports Stock Video Footage and DVDs for sale
Season 1986-1987 Tropical Cyclone SALLY Track Map
Season 1986-1987 Summaries: [BoM-AU] [JTWC-AU] [JTWC-SIO] [JTWC-SPAC] [JTWC-SH]
<<- Previous TC | JTWC 1986-1987 Season | Next TC ->>

click for intensity scale information  Lat/long Grid: Show Hide

 Date Labels: Show Hide

Joint Typhoon Warning Centre Cyclone Data

Name: SALLY

27 Dec 1986 06:00 UTC to 05 Jan 1987 00:00 UTC

    date/time    lat    long     hPa   cat  kts
1986-12-27 06   13.5   163.2W                 25          
1986-12-27 12   13.9   163.2W                 25          
1986-12-27 18   14.3   163.2W                 25          
1986-12-28 00   14.7   163.2W                 30          
1986-12-28 06   15.0   163.2W                 35          
1986-12-28 12   15.3   163.2W                 35          
1986-12-28 18   15.6   163.2W           1     40          
1986-12-29 00   15.9   163.2W           1     45          
1986-12-29 06   16.2   163.2W           1     45          
1986-12-29 12   16.6   163.1W           1     50          
1986-12-29 18   16.8   162.9W           1     50          
1986-12-30 00   17.0   162.6W           2     55          
1986-12-30 06   17.1   162.2W           2     55          
1986-12-30 12   17.1   161.8W           2     60          
1986-12-30 18   17.1   161.4W           2     60          
1986-12-31 00   17.0   161.0W           2     65          
1986-12-31 06   16.4   160.8W           2     65          
1986-12-31 12   16.4   161.2W           2     60          
1986-12-31 18   16.7   161.5W           2     60          
1987-01-01 00   17.2   161.5W           2     60          
1987-01-01 06   17.5   161.5W           2     60          
1987-01-01 12   17.8   161.5W           2     55          
1987-01-01 18   18.3   161.4W           2     55          
1987-01-02 00   18.8   161.2W           2     55          
1987-01-02 06   19.3   160.9W           2     55          
1987-01-02 12   19.8   160.3W           1     50          
1987-01-02 18   20.3   159.6W           1     50          
1987-01-03 00   20.7   158.7W           1     50          
1987-01-03 06   21.3   157.6W           1     50          
1987-01-03 12   21.8   156.4W           1     50          
1987-01-03 18   22.5   155.3W           1     45          
1987-01-04 00   23.2   154.3W           1     45          
1987-01-04 06   24.0   153.2W           1     45          
1987-01-04 12   24.8   152.2W           1     40          
1987-01-04 18   25.8   151.2W           1     40          
1987-01-05 00   26.8   150.2W           1     40          
Winds are 1-min average.

Tropical cyclone tracks developed by Michael Bath using data from the Joint Typhoon Warning Centre Best Tracks and Google Maps.


[Australian Severe Weather index] [Copyright Notice] [Email Contacts] [Search This Site] [Privacy Policy]
Document: tropical_cyclone_sally.htm Updated: 18 September 2016